Main page
METAR-TAF:

METAR-TAF

Airports :

Koksijde Air Base

Koksijde, Belgium

latitude: 51-05N, longitude: 002-39E, elevation: 4 m

Current weather observation

The report was made 13 minutes ago, at 00:03 UTC
Wind 3 kt from the West
Temperature 4°C
Humidity 87%
Pressure 1010 hPa
Visibility: 7000 m

METAR: EBFN 180003Z AUTO 26003KT 7000 BKN150/// 04/02 Q1010 WHT

Time: 01:16 (00:16 UTC)

Forecast

The report was made 8 hours and 35 minutes ago, at 15:41 UTC
Forecast valid from 17 at 19 UTC to 18 at 07 UTC
Wind 15 kt from the North/Northeast
Visibility 10 km or more
Scattered clouds at a height of 2500 ft
Broken clouds at a height of 20000 ft
Temporary
from 17 at 01 UTC to 18 at 07 UTC
Wind 20 kt from the North/Northeast with gusts up to 30 kt
Visibility: 4000 m
Few clouds at a height of 1200 ft
Scattered clouds at a height of 1500 ft
Scattered clouds at a height of 2500 ft

TAF: EBFN 171541Z 1719/1807 03015KT 9999 SCT025 BKN200 TEMPO 1701/1807 02020G30KT 4000 -RA/-SHRA FEW012 SCT015 SCT025

Weather observations and forecasts of more than 4000 airports (METAR and TAF reports).

The available stations are represented by yellow and red dots on the map.

Hover mouse over dot to see the name of the station.

Then click to see weather observations and forecasts.

To change the map : click on the green buttons with a black cross to zoom in, on the green button with a dash to zoom out, or on the green arrows for adjacent maps.


METAR-TAF: